Time;durP1;ratioP1;P1;durP2;ratioP2;P2;SDS_P1;SDS_P2;PMS_P1;PMS_P2;Temp;Humidity;BMP_temperature;BMP_pressure;BME280_temperature;BME280_humidity;BME280_pressure;Samples;Min_cycle;Max_cycle;Signal;HPM_P1;HPM_P2
2023/03/23 00:00:46;;;;;;;1.33;1.00;;;20.70;49.60;;;;;;5085151;28;20214;-63
2023/03/23 00:03:17;;;;;;;3.00;1.38;;;20.70;49.70;;;;;;5072608;28;20226;-62
2023/03/23 00:05:51;;;;;;;1.20;0.75;;;20.70;49.70;;;;;;5084702;28;20580;-63
2023/03/23 00:08:22;;;;;;;1.63;1.05;;;20.80;49.70;;;;;;5072201;28;20232;-57
2023/03/23 00:10:56;;;;;;;1.10;0.80;;;20.80;49.70;;;;;;5071792;28;20279;-57
2023/03/23 00:13:27;;;;;;;1.80;1.08;;;20.80;49.70;;;;;;5072012;28;20285;-61
2023/03/23 00:15:58;;;;;;;1.95;1.02;;;20.80;49.80;;;;;;5080391;28;20194;-63
2023/03/23 00:18:29;;;;;;;1.15;0.80;;;20.90;49.80;;;;;;5072644;28;20226;-63
2023/03/23 00:21:07;;;;;;;1.02;0.80;;;20.90;49.80;;;;;;5079811;28;20191;-63
2023/03/23 00:23:38;;;;;;;1.60;0.90;;;20.90;49.70;;;;;;5072669;28;20222;-59
2023/03/23 00:26:10;;;;;;;1.92;0.90;;;21.00;49.80;;;;;;5085551;28;20662;-63
2023/03/23 00:28:41;;;;;;;1.25;0.95;;;21.00;49.70;;;;;;5072040;28;20198;-62
2023/03/23 00:31:13;;;;;;;3.03;1.00;;;21.00;49.50;;;;;;5089417;28;20198;-62
2023/03/23 00:33:44;;;;;;;1.35;0.95;;;21.00;49.50;;;;;;5071603;28;20195;-63
2023/03/23 00:36:15;;;;;;;1.63;0.90;;;21.10;49.50;;;;;;5089778;28;20214;-63
2023/03/23 00:38:46;;;;;;;1.00;0.82;;;21.10;49.50;;;;;;5076094;28;20199;-59
2023/03/23 00:41:20;;;;;;;0.60;0.60;;;21.10;49.50;;;;;;5079680;28;20229;-62
2023/03/23 00:43:51;;;;;;;1.45;0.80;;;21.10;49.50;;;;;;5080751;28;20237;-64
2023/03/23 00:46:22;;;;;;;1.73;0.77;;;21.10;49.50;;;;;;5090339;28;20210;-61
2023/03/23 00:48:53;;;;;;;1.00;0.80;;;21.20;49.60;;;;;;5086217;28;20681;-62
2023/03/23 00:51:23;;;;;;;1.35;0.70;;;21.20;49.60;;;;;;5090307;28;20190;-63
2023/03/23 00:53:54;;;;;;;1.23;0.98;;;21.20;49.60;;;;;;5078204;28;20206;-57
2023/03/23 00:56:27;;;;;;;1.95;0.90;;;21.30;49.60;;;;;;5083907;28;20214;-62
2023/03/23 00:58:57;;;;;;;2.20;0.88;;;21.30;49.60;;;;;;5087307;28;20194;-63
2023/03/23 01:01:28;;;;;;;1.38;0.80;;;21.30;50.20;;;;;;5073271;28;20666;-63
2023/03/23 01:04:03;;;;;;;1.23;0.90;;;21.30;49.60;;;;;;5071477;28;20226;-63
2023/03/23 01:06:35;;;;;;;1.48;0.65;;;21.30;49.60;;;;;;5075160;28;20272;-60
2023/03/23 01:09:06;;;;;;;1.35;0.82;;;21.30;49.50;;;;;;5070739;28;20206;-60
2023/03/23 01:11:39;;;;;;;1.27;0.90;;;21.40;49.40;;;;;;5079876;28;20201;-57
2023/03/23 01:14:10;;;;;;;1.40;0.90;;;21.40;49.40;;;;;;5071058;28;20202;-61
2023/03/23 01:16:40;;;;;;;1.65;1.00;;;21.40;49.40;;;;;;5086008;28;20219;-62
2023/03/23 01:19:11;;;;;;;1.00;0.80;;;21.40;49.40;;;;;;5070976;28;20203;-59
2023/03/23 01:21:42;;;;;;;0.93;0.80;;;21.50;49.40;;;;;;5086461;28;20190;-59
2023/03/23 01:24:13;;;;;;;1.85;0.90;;;21.50;49.40;;;;;;5072487;28;20234;-55
2023/03/23 01:26:45;;;;;;;1.67;0.90;;;21.50;49.30;;;;;;5084131;28;20217;-63
2023/03/23 01:29:16;;;;;;;1.52;0.75;;;21.50;49.30;;;;;;5073642;28;20206;-63
2023/03/23 01:31:47;;;;;;;0.93;0.60;;;21.60;49.30;;;;;;5089562;28;20205;-63
2023/03/23 01:34:17;;;;;;;1.45;0.75;;;21.60;49.40;;;;;;5080076;28;20207;-62
2023/03/23 01:36:48;;;;;;;0.68;0.68;;;21.60;49.40;;;;;;5090344;28;20218;-59
2023/03/23 01:39:19;;;;;;;1.75;1.05;;;21.60;49.40;;;;;;5083453;28;20210;-59
2023/03/23 01:41:51;;;;;;;1.05;0.70;;;21.60;49.40;;;;;;5089871;28;20198;-58
2023/03/23 01:44:53;;;;;;;1.05;0.70;;;21.60;49.40;;;;;;5087930;28;20229;-62
2023/03/23 01:47:26;;;;;;;1.10;0.60;;;21.60;49.30;;;;;;5062688;28;20226;-60
2023/03/23 01:49:57;;;;;;;1.10;0.70;;;21.70;49.30;;;;;;5088623;28;20194;-63
2023/03/23 01:52:31;;;;;;;1.27;0.73;;;21.70;49.30;;;;;;5070995;28;20282;-62
2023/03/23 01:55:02;;;;;;;1.42;0.90;;;21.70;49.30;;;;;;5073360;28;20191;-62
2023/03/23 01:57:36;;;;;;;1.55;0.88;;;21.70;49.30;;;;;;5087027;28;20225;-63
2023/03/23 02:00:14;;;;;;;1.17;0.68;;;21.80;49.30;;;;;;5090622;28;20214;-63
2023/03/23 02:02:47;;;;;;;0.60;0.60;;;21.80;49.30;;;;;;5088812;28;20201;-55
2023/03/23 02:05:24;;;;;;;1.10;0.80;;;21.80;49.30;;;;;;5083235;28;20536;-64
2023/03/23 02:07:56;;;;;;;2.25;0.70;;;21.80;49.30;;;;;;5069263;28;20627;-59
2023/03/23 02:10:27;;;;;;;1.98;0.90;;;21.80;49.40;;;;;;5081947;28;20201;-61
2023/03/23 02:13:00;;;;;;;1.00;0.75;;;21.90;49.40;;;;;;5072859;28;20682;-58
2023/03/23 02:15:36;;;;;;;0.93;0.80;;;21.90;49.30;;;;;;5082237;28;20209;-58
2023/03/23 02:18:13;;;;;;;2.20;0.82;;;21.90;49.30;;;;;;5085118;28;20250;-60
2023/03/23 02:21:02;;;;;;;1.73;0.68;;;21.90;49.30;;;;;;5078102;28;20193;-63
2023/03/23 02:24:17;;;;;;;0.93;0.80;;;22.00;49.30;;;;;;5088157;28;20248;-63
2023/03/23 02:26:58;;;;;;;1.83;0.90;;;22.00;49.20;;;;;;5025982;28;20208;-62
2023/03/23 02:29:49;;;;;;;1.40;0.95;;;22.00;49.20;;;;;;5027353;28;20587;-62
2023/03/23 02:32:42;;;;;;;0.85;0.70;;;22.00;49.20;;;;;;5057681;28;20183;-63
2023/03/23 02:35:20;;;;;;;1.38;0.90;;;22.10;49.20;;;;;;5085731;28;20200;-63
2023/03/23 02:37:54;;;;;;;0.90;0.70;;;22.10;49.20;;;;;;5088922;28;20216;-57
2023/03/23 02:40:30;;;;;;;1.33;0.70;;;22.10;49.10;;;;;;5088186;28;20202;-61
2023/03/23 02:43:02;;;;;;;1.27;0.80;;;22.10;49.10;;;;;;5090174;28;20202;-63
2023/03/23 02:45:35;;;;;;;0.75;0.70;;;22.20;49.20;;;;;;5089066;28;20190;-59
2023/03/23 02:48:07;;;;;;;1.13;0.70;;;22.20;49.20;;;;;;5069632;28;20227;-61
2023/03/23 02:50:41;;;;;;;1.17;0.70;;;22.30;49.30;;;;;;5077675;28;20190;-62
2023/03/23 02:53:14;;;;;;;1.30;0.70;;;22.30;49.30;;;;;;5073403;28;20207;-63
2023/03/23 02:55:48;;;;;;;1.27;0.80;;;22.30;49.20;;;;;;5076015;28;20197;-58
2023/03/23 02:58:19;;;;;;;0.85;0.60;;;22.40;49.30;;;;;;5068772;28;20286;-63
2023/03/23 03:00:50;;;;;;;0.65;0.50;;;22.40;49.20;;;;;;5070569;28;20195;-55
2023/03/23 03:03:24;;;;;;;0.77;0.60;;;22.40;49.20;;;;;;5070281;28;20272;-62
2023/03/23 03:06:08;;;;;;;1.38;0.88;;;22.40;49.20;;;;;;5076306;28;20198;-62
2023/03/23 03:08:44;;;;;;;0.60;0.40;;;22.50;49.20;;;;;;5077428;28;20199;-57
2023/03/23 03:11:16;;;;;;;0.50;0.50;;;22.50;49.20;;;;;;5083371;28;20197;-63
2023/03/23 03:13:52;;;;;;;0.82;0.65;;;22.60;49.20;;;;;;5091757;28;20194;-61
2023/03/23 03:16:30;;;;;;;0.85;0.60;;;22.60;49.20;;;;;;5083595;28;20210;-62
2023/03/23 03:19:04;;;;;;;1.20;0.80;;;22.60;49.10;;;;;;5093424;28;20200;-63
2023/03/23 03:21:39;;;;;;;1.00;0.70;;;22.70;49.60;;;;;;5073985;28;20214;-62
2023/03/23 03:24:11;;;;;;;1.38;0.70;;;22.70;49.00;;;;;;5073324;28;20229;-62
2023/03/23 03:26:47;;;;;;;0.80;0.80;;;22.70;49.00;;;;;;5077695;28;20211;-56
2023/03/23 03:29:19;;;;;;;0.68;0.57;;;22.70;49.00;;;;;;5073392;28;20282;-58
2023/03/23 03:31:51;;;;;;;1.17;0.50;;;22.80;48.90;;;;;;5083873;28;20670;-60
2023/03/23 03:34:24;;;;;;;1.30;0.63;;;22.80;48.80;;;;;;5073041;28;20203;-57
2023/03/23 03:36:59;;;;;;;0.98;0.73;;;22.80;48.80;;;;;;5078471;28;20221;-58
2023/03/23 03:39:30;;;;;;;1.20;0.63;;;22.90;48.80;;;;;;5073740;28;20723;-62
2023/03/23 03:42:01;;;;;;;0.75;0.60;;;22.90;48.70;;;;;;5085690;28;20198;-61
2023/03/23 03:44:32;;;;;;;0.70;0.60;;;22.90;48.70;;;;;;5093407;28;20226;-63
2023/03/23 03:47:02;;;;;;;0.90;0.70;;;22.90;48.70;;;;;;5093017;28;20241;-63
2023/03/23 03:49:33;;;;;;;1.75;0.75;;;23.00;48.70;;;;;;5091454;28;20201;-60
2023/03/23 03:52:06;;;;;;;0.93;0.60;;;23.00;48.70;;;;;;5093409;28;20201;-63
2023/03/23 03:54:37;;;;;;;1.27;0.90;;;23.00;48.60;;;;;;5077312;28;20575;-59
2023/03/23 03:57:07;;;;;;;2.00;0.80;;;23.10;48.60;;;;;;5075159;28;20219;-56
2023/03/23 03:59:38;;;;;;;1.63;0.80;;;23.10;48.40;;;;;;5082834;28;20217;-63
2023/03/23 04:02:09;;;;;;;1.75;0.93;;;23.10;48.40;;;;;;5092918;28;20198;-62
2023/03/23 04:04:40;;;;;;;2.00;0.70;;;23.10;48.40;;;;;;5087086;28;20227;-58
2023/03/23 04:07:13;;;;;;;2.08;0.95;;;23.10;48.30;;;;;;5086678;28;20259;-63
2023/03/23 04:09:46;;;;;;;3.90;0.82;;;23.20;48.40;;;;;;5092346;28;20610;-59
2023/03/23 04:12:17;;;;;;;1.80;0.70;;;23.20;48.30;;;;;;5092224;28;20194;-59
2023/03/23 04:14:47;;;;;;;1.90;1.00;;;23.30;48.30;;;;;;5092896;28;20213;-57
2023/03/23 04:17:19;;;;;;;1.35;0.80;;;23.30;48.30;;;;;;5089660;28;20218;-59
2023/03/23 04:19:50;;;;;;;1.95;0.75;;;23.30;48.30;;;;;;5079039;28;20218;-57
2023/03/23 04:22:24;;;;;;;2.75;0.95;;;23.30;48.20;;;;;;5076661;28;20191;-59
2023/03/23 04:24:58;;;;;;;2.40;0.80;;;23.40;48.30;;;;;;5072189;28;20236;-57
2023/03/23 04:27:29;;;;;;;1.90;0.77;;;23.40;48.20;;;;;;5071324;28;20223;-62
2023/03/23 04:30:00;;;;;;;2.38;0.90;;;23.40;48.10;;;;;;5071905;28;20195;-55
2023/03/23 04:32:31;;;;;;;1.73;0.70;;;23.40;48.10;;;;;;5082089;28;20211;-52
2023/03/23 04:35:02;;;;;;;1.45;0.68;;;23.50;48.40;;;;;;5092055;28;20703;-61
2023/03/23 04:37:35;;;;;;;1.60;0.63;;;23.50;48.10;;;;;;5087024;28;20221;-55
2023/03/23 04:40:11;;;;;;;2.08;0.80;;;23.50;48.00;;;;;;5089211;28;20309;-57
2023/03/23 04:42:45;;;;;;;1.77;0.65;;;23.50;47.90;;;;;;5073461;28;20666;-60
2023/03/23 04:45:21;;;;;;;2.80;0.95;;;23.60;47.90;;;;;;5073782;28;20226;-58
2023/03/23 04:47:57;;;;;;;1.58;0.55;;;23.50;47.90;;;;;;5083190;28;20214;-64
2023/03/23 04:50:30;;;;;;;1.05;0.50;;;23.60;47.90;;;;;;5072201;28;20237;-58
2023/03/23 04:53:05;;;;;;;2.45;0.90;;;23.60;48.40;;;;;;5081697;28;20190;-63
2023/03/23 04:55:37;;;;;;;1.05;0.50;;;23.60;47.90;;;;;;5091535;28;20198;-61
2023/03/23 04:58:09;;;;;;;1.77;0.73;;;23.60;47.80;;;;;;5070125;28;20311;-56
2023/03/23 05:00:40;;;;;;;1.50;0.82;;;23.60;47.70;;;;;;5071382;28;20198;-55
2023/03/23 05:03:11;;;;;;;1.95;0.70;;;23.50;47.70;;;;;;5081699;28;20197;-59
2023/03/23 05:05:41;;;;;;;1.58;0.70;;;23.50;47.60;;;;;;5071577;28;20707;-51
2023/03/23 05:08:14;;;;;;;2.67;0.80;;;23.50;47.60;;;;;;5083355;28;20579;-56
2023/03/23 05:10:45;;;;;;;1.50;0.70;;;23.50;47.70;;;;;;5074737;28;20198;-56
2023/03/23 05:13:15;;;;;;;2.60;0.60;;;23.50;47.60;;;;;;5083098;28;20282;-62
2023/03/23 05:15:46;;;;;;;2.45;0.80;;;23.50;47.60;;;;;;5090327;28;20198;-58
2023/03/23 05:18:17;;;;;;;2.45;0.80;;;23.50;47.60;;;;;;5090517;28;20225;-57
2023/03/23 05:20:48;;;;;;;2.13;0.80;;;23.50;47.60;;;;;;5082917;28;20566;-57
2023/03/23 05:23:24;;;;;;;1.10;0.68;;;23.50;47.60;;;;;;5083693;28;20190;-59
2023/03/23 05:26:00;;;;;;;0.77;0.52;;;23.50;47.50;;;;;;5087602;28;20268;-55
2023/03/23 05:28:31;;;;;;;3.60;0.82;;;23.50;47.50;;;;;;5090758;28;20719;-61
2023/03/23 05:31:01;;;;;;;1.65;0.75;;;23.50;47.40;;;;;;5090375;28;20194;-57
2023/03/23 05:33:32;;;;;;;1.70;0.70;;;23.50;47.40;;;;;;5079639;28;20208;-54
2023/03/23 05:36:04;;;;;;;1.55;0.60;;;23.50;47.40;;;;;;5069935;28;20203;-60
2023/03/23 05:38:38;;;;;;;0.75;0.60;;;23.40;47.30;;;;;;5073777;28;20194;-59
2023/03/23 05:41:09;;;;;;;1.33;0.85;;;23.40;47.20;;;;;;5076055;28;20194;-58
2023/03/23 05:43:40;;;;;;;1.60;0.65;;;23.40;47.10;;;;;;5072389;28;20197;-64
2023/03/23 05:46:11;;;;;;;1.30;0.70;;;23.40;47.20;;;;;;5081673;28;20205;-60
2023/03/23 05:48:41;;;;;;;1.20;0.70;;;23.40;47.10;;;;;;5089908;28;20198;-56
2023/03/23 05:51:12;;;;;;;1.15;0.90;;;23.30;47.10;;;;;;5087334;28;20644;-61
2023/03/23 05:53:44;;;;;;;1.40;0.70;;;23.30;47.10;;;;;;5073100;28;20206;-60
2023/03/23 05:56:15;;;;;;;0.70;0.52;;;23.30;47.20;;;;;;5080297;28;20222;-62
2023/03/23 05:58:46;;;;;;;1.50;0.88;;;23.40;47.20;;;;;;5078508;28;20662;-63
2023/03/23 06:01:16;;;;;;;1.23;0.88;;;23.30;47.20;;;;;;5083951;28;20190;-61
2023/03/23 06:03:48;;;;;;;1.73;0.90;;;23.30;47.20;;;;;;5090983;28;20201;-56
2023/03/23 06:06:19;;;;;;;1.45;0.70;;;23.30;47.20;;;;;;5086267;28;20222;-58
2023/03/23 06:08:52;;;;;;;1.13;0.80;;;23.30;47.20;;;;;;5090935;28;20194;-59
2023/03/23 06:11:22;;;;;;;1.33;0.82;;;23.30;47.10;;;;;;5080309;28;20195;-60
2023/03/23 06:13:54;;;;;;;3.72;1.23;;;23.30;47.10;;;;;;5069715;28;20201;-58
2023/03/23 06:16:24;;;;;;;2.55;1.00;;;23.30;47.10;;;;;;5084683;28;20241;-58
2023/03/23 06:18:56;;;;;;;2.50;1.20;;;23.20;47.00;;;;;;5090919;28;20243;-56
2023/03/23 06:21:27;;;;;;;2.78;1.10;;;23.20;47.00;;;;;;5091228;28;20319;-57
2023/03/23 06:24:00;;;;;;;2.90;1.33;;;23.20;47.10;;;;;;5069985;28;20209;-60
2023/03/23 06:26:34;;;;;;;2.10;1.10;;;23.10;47.00;;;;;;5081696;28;20245;-58
2023/03/23 06:29:10;;;;;;;2.20;0.80;;;23.10;47.10;;;;;;5072440;28;20236;-61
2023/03/23 06:31:43;;;;;;;1.40;0.85;;;23.10;47.10;;;;;;5083242;28;20190;-59
2023/03/23 06:34:14;;;;;;;1.25;0.95;;;23.10;47.10;;;;;;5074876;28;20248;-61
2023/03/23 06:36:45;;;;;;;3.03;1.10;;;23.10;47.10;;;;;;5070722;28;20215;-57
2023/03/23 06:39:18;;;;;;;2.35;1.00;;;23.10;47.10;;;;;;5070615;28;20256;-63
2023/03/23 06:41:48;;;;;;;2.40;1.00;;;23.10;47.20;;;;;;5089429;28;20197;-60
2023/03/23 06:44:19;;;;;;;1.45;0.88;;;23.10;47.20;;;;;;5094690;28;20217;-61
2023/03/23 06:46:50;;;;;;;1.55;0.90;;;23.10;47.10;;;;;;5094198;28;20590;-61
2023/03/23 06:49:21;;;;;;;2.75;0.80;;;23.10;47.10;;;;;;5094252;28;20198;-58
2023/03/23 06:51:51;;;;;;;1.55;0.90;;;23.10;47.10;;;;;;5094460;28;20198;-61
2023/03/23 06:54:24;;;;;;;1.40;0.85;;;23.10;47.10;;;;;;5076994;28;20203;-60
2023/03/23 06:56:55;;;;;;;1.95;0.70;;;23.00;47.00;;;;;;5084357;28;20222;-64
2023/03/23 06:59:25;;;;;;;2.35;1.00;;;23.00;47.00;;;;;;5094681;28;20198;-57
2023/03/23 07:01:56;;;;;;;2.25;1.05;;;23.00;47.00;;;;;;5094388;28;20198;-62
2023/03/23 07:04:27;;;;;;;1.20;0.80;;;23.00;47.00;;;;;;5094320;28;20662;-54
2023/03/23 07:06:58;;;;;;;1.40;0.70;;;23.00;47.00;;;;;;5093916;28;20218;-60
2023/03/23 07:09:31;;;;;;;1.23;0.82;;;23.00;47.10;;;;;;5092238;28;20278;-56
2023/03/23 07:12:01;;;;;;;1.02;0.80;;;22.90;47.10;;;;;;5073575;28;20199;-56
2023/03/23 07:14:32;;;;;;;1.75;0.85;;;22.90;47.10;;;;;;5082194;28;20558;-58
2023/03/23 07:17:03;;;;;;;1.88;1.00;;;22.90;47.10;;;;;;5089431;28;20206;-55
2023/03/23 07:19:33;;;;;;;1.73;0.88;;;22.90;47.10;;;;;;5093929;28;20198;-63
2023/03/23 07:22:06;;;;;;;1.52;0.73;;;22.90;47.10;;;;;;5093851;28;20202;-54
2023/03/23 07:24:38;;;;;;;1.95;0.90;;;22.90;47.10;;;;;;5094263;28;20218;-59
2023/03/23 07:27:09;;;;;;;2.58;1.10;;;22.90;47.10;;;;;;5093596;28;20222;-57
2023/03/23 07:29:40;;;;;;;2.17;0.90;;;22.90;47.10;;;;;;5093446;28;20190;-59
2023/03/23 07:32:14;;;;;;;2.15;0.90;;;22.90;47.10;;;;;;5093576;28;20198;-52
2023/03/23 07:34:44;;;;;;;1.17;0.80;;;22.80;47.10;;;;;;5093830;28;20677;-55
2023/03/23 07:37:15;;;;;;;1.98;0.90;;;22.80;47.00;;;;;;5093588;28;20550;-54
2023/03/23 07:39:48;;;;;;;1.40;0.70;;;22.80;47.10;;;;;;5092006;28;20201;-56
2023/03/23 07:42:18;;;;;;;1.60;0.75;;;22.70;47.00;;;;;;5073193;28;20395;-61
2023/03/23 07:44:51;;;;;;;1.48;0.98;;;22.70;47.00;;;;;;5082820;28;20249;-62
2023/03/23 07:47:22;;;;;;;2.55;1.13;;;22.70;47.00;;;;;;5093060;28;20248;-61
2023/03/23 07:49:52;;;;;;;4.20;1.15;;;22.70;47.00;;;;;;5083194;28;20202;-63
2023/03/23 07:52:23;;;;;;;3.08;0.80;;;22.70;47.10;;;;;;5072323;28;20554;-56
2023/03/23 07:54:56;;;;;;;1.45;0.88;;;22.70;47.10;;;;;;5072176;28;20659;-60
2023/03/23 07:57:27;;;;;;;2.75;1.05;;;22.70;47.10;;;;;;5087019;28;20218;-61
2023/03/23 07:59:57;;;;;;;1.23;0.80;;;22.70;47.10;;;;;;5093163;28;20206;-61
2023/03/23 08:02:28;;;;;;;2.65;0.90;;;22.60;47.10;;;;;;5087776;28;20198;-60
2023/03/23 08:05:00;;;;;;;2.92;1.10;;;22.60;47.10;;;;;;5072864;28;20709;-60
2023/03/23 08:07:31;;;;;;;3.30;1.30;;;22.60;47.10;;;;;;5072957;28;20277;-53
2023/03/23 08:10:04;;;;;;;2.25;1.13;;;22.60;47.10;;;;;;5076495;28;20205;-61
2023/03/23 08:12:35;;;;;;;2.70;1.05;;;22.60;47.20;;;;;;5072070;28;20558;-58
2023/03/23 08:15:06;;;;;;;2.33;1.10;;;22.60;47.20;;;;;;5072179;28;20682;-61
2023/03/23 08:17:38;;;;;;;2.58;1.00;;;22.60;47.20;;;;;;5072126;28;20219;-59
2023/03/23 08:20:12;;;;;;;2.10;1.00;;;22.60;47.20;;;;;;5072307;28;20278;-58
2023/03/23 08:22:44;;;;;;;3.00;0.88;;;22.50;47.20;;;;;;5072534;28;20232;-61
2023/03/23 08:25:18;;;;;;;1.33;0.88;;;22.50;47.20;;;;;;5072393;28;20215;-62
2023/03/23 08:27:48;;;;;;;2.25;0.93;;;22.50;47.20;;;;;;5071946;28;20225;-58
2023/03/23 08:30:21;;;;;;;2.47;0.90;;;22.50;47.30;;;;;;5073913;28;20597;-56
2023/03/23 08:32:52;;;;;;;2.35;0.90;;;22.50;47.20;;;;;;5092129;28;20283;-54
2023/03/23 08:35:23;;;;;;;2.75;1.08;;;22.50;47.30;;;;;;5091975;28;20198;-54
2023/03/23 08:37:54;;;;;;;1.60;0.80;;;22.50;47.30;;;;;;5092139;28;20214;-61
2023/03/23 08:40:28;;;;;;;1.42;0.70;;;22.50;47.30;;;;;;5092086;28;20194;-53
2023/03/23 08:42:59;;;;;;;3.17;1.33;;;22.50;47.30;;;;;;5091667;28;20198;-62
2023/03/23 08:45:30;;;;;;;3.17;1.25;;;22.50;47.40;;;;;;5092151;28;20225;-58
2023/03/23 08:48:00;;;;;;;2.70;1.10;;;22.40;47.30;;;;;;5089312;28;20244;-57
2023/03/23 08:50:32;;;;;;;1.63;0.77;;;22.40;47.40;;;;;;5071226;28;20202;-51
2023/03/23 08:53:03;;;;;;;1.92;1.10;;;22.40;47.30;;;;;;5071598;28;20230;-58
2023/03/23 08:55:36;;;;;;;2.30;1.02;;;22.40;47.40;;;;;;5071599;28;20273;-60
2023/03/23 08:58:06;;;;;;;2.20;1.20;;;22.40;47.40;;;;;;5091193;28;20325;-57
2023/03/23 09:00:37;;;;;;;1.58;0.82;;;22.40;47.40;;;;;;5091336;28;20206;-56
2023/03/23 09:03:08;;;;;;;2.42;1.40;;;22.40;47.50;;;;;;5074902;28;20201;-59
2023/03/23 09:05:42;;;;;;;2.17;1.23;;;22.40;47.50;;;;;;5083344;28;20226;-59
2023/03/23 09:08:14;;;;;;;2.08;1.15;;;22.30;47.50;;;;;;5091676;28;20262;-59
2023/03/23 09:10:46;;;;;;;1.75;1.00;;;22.30;47.50;;;;;;5071024;28;20230;-53
2023/03/23 09:13:17;;;;;;;2.08;0.90;;;22.30;47.50;;;;;;5083222;28;20202;-57
2023/03/23 09:15:48;;;;;;;2.28;1.10;;;22.30;47.50;;;;;;5074031;28;20635;-51
2023/03/23 09:18:19;;;;;;;2.58;1.00;;;22.30;47.50;;;;;;5081883;28;20544;-53
2023/03/23 09:20:51;;;;;;;2.80;1.15;;;22.30;47.50;;;;;;5079128;28;20206;-60
2023/03/23 09:23:22;;;;;;;3.20;1.08;;;22.30;47.60;;;;;;5082944;28;20202;-59
2023/03/23 09:25:55;;;;;;;1.45;1.10;;;22.30;47.60;;;;;;5074888;28;20230;-61
2023/03/23 09:28:25;;;;;;;2.85;1.10;;;22.30;47.60;;;;;;5087412;28;20565;-56
2023/03/23 09:30:58;;;;;;;1.42;0.93;;;22.30;47.60;;;;;;5087735;28;20189;-53
2023/03/23 09:33:34;;;;;;;2.35;1.40;;;22.20;47.50;;;;;;5081745;28;20647;-60
2023/03/23 09:36:07;;;;;;;1.92;1.10;;;22.20;47.50;;;;;;5090067;28;20193;-59
2023/03/23 09:38:38;;;;;;;1.92;1.20;;;22.20;47.50;;;;;;5082796;28;20569;-55
2023/03/23 09:41:22;;;;;;;2.40;1.30;;;22.20;47.60;;;;;;5091098;28;20648;-57
2023/03/23 09:44:02;;;;;;;2.83;1.00;;;22.20;47.60;;;;;;5087887;28;20221;-57
2023/03/23 09:46:45;;;;;;;1.27;0.90;;;22.20;47.60;;;;;;5090299;28;20225;-57
2023/03/23 09:49:19;;;;;;;1.73;1.15;;;22.20;47.60;;;;;;5072562;28;20201;-59
2023/03/23 09:51:54;;;;;;;1.90;1.10;;;22.20;47.60;;;;;;5071003;28;20197;-58
2023/03/23 09:54:26;;;;;;;2.13;1.02;;;22.20;47.60;;;;;;5077233;28;20206;-58
2023/03/23 09:57:01;;;;;;;1.80;0.90;;;22.20;47.60;;;;;;5079867;28;20229;-61
2023/03/23 09:59:37;;;;;;;1.65;0.82;;;22.10;47.60;;;;;;5082204;28;20632;-55
2023/03/23 10:02:17;;;;;;;1.70;1.05;;;22.10;47.60;;;;;;5070604;28;20728;-50
2023/03/23 10:04:49;;;;;;;2.50;1.13;;;22.10;47.60;;;;;;5069485;28;20293;-55
2023/03/23 10:07:21;;;;;;;1.90;1.00;;;22.10;47.60;;;;;;5084056;28;20429;-61
2023/03/23 10:09:55;;;;;;;2.10;0.98;;;22.10;47.60;;;;;;5090591;28;20197;-52
2023/03/23 10:12:34;;;;;;;2.30;1.10;;;22.10;47.70;;;;;;5071175;28;20198;-64
2023/03/23 10:15:18;;;;;;;2.63;1.17;;;22.10;47.60;;;;;;5077747;28;20665;-63
2023/03/23 10:17:57;;;;;;;2.88;1.02;;;22.00;47.60;;;;;;5075202;28;20214;-61
2023/03/23 10:20:39;;;;;;;2.13;0.90;;;22.00;47.60;;;;;;5075217;28;20195;-64
2023/03/23 10:23:26;;;;;;;1.95;1.30;;;22.00;47.70;;;;;;5080173;28;20606;-63
2023/03/23 10:26:03;;;;;;;1.55;0.93;;;22.00;47.70;;;;;;5086949;28;20258;-64
2023/03/23 10:28:43;;;;;;;1.83;1.05;;;22.00;47.70;;;;;;5086900;28;20193;-63
2023/03/23 10:31:17;;;;;;;1.58;0.77;;;22.00;47.70;;;;;;5094490;28;20194;-59
2023/03/23 10:33:50;;;;;;;1.50;0.98;;;22.00;47.70;;;;;;5081738;28;20213;-60
2023/03/23 10:36:26;;;;;;;1.20;0.90;;;22.00;47.70;;;;;;5092355;28;20218;-63
2023/03/23 10:39:01;;;;;;;1.95;0.98;;;22.00;47.70;;;;;;5084892;28;20247;-53
2023/03/23 10:41:32;;;;;;;1.58;0.88;;;22.00;47.90;;;;;;5091668;28;20279;-57
2023/03/23 10:44:10;;;;;;;1.65;0.90;;;21.90;47.70;;;;;;5088395;28;20303;-63
2023/03/23 10:46:48;;;;;;;2.25;1.15;;;21.90;47.70;;;;;;5074207;28;20230;-58
2023/03/23 10:49:23;;;;;;;1.70;1.02;;;21.90;47.70;;;;;;5086750;28;20198;-56
2023/03/23 10:52:01;;;;;;;1.80;1.10;;;21.90;47.70;;;;;;5074293;28;20194;-59
2023/03/23 10:54:43;;;;;;;2.22;0.80;;;21.90;47.70;;;;;;5090255;28;20194;-61
2023/03/23 10:57:26;;;;;;;2.08;0.90;;;21.90;47.70;;;;;;5082451;28;20638;-58
2023/03/23 11:00:08;;;;;;;1.35;0.90;;;21.90;47.80;;;;;;5092749;28;20210;-54
2023/03/23 11:02:44;;;;;;;1.48;0.95;;;21.80;47.80;;;;;;5073368;28;20720;-60
2023/03/23 11:05:22;;;;;;;1.40;0.90;;;21.80;47.80;;;;;;5074113;28;20199;-57
2023/03/23 11:07:56;;;;;;;2.85;1.10;;;21.80;47.80;;;;;;5078990;28;20593;-58
2023/03/23 11:10:28;;;;;;;1.77;0.88;;;21.80;47.80;;;;;;5114788;28;20649;-60
2023/03/23 11:13:01;;;;;;;1.52;1.10;;;21.80;47.80;;;;;;5096179;28;20190;-56
2023/03/23 11:15:36;;;;;;;1.85;1.08;;;21.80;47.90;;;;;;5083722;28;20557;-56
2023/03/23 11:18:07;;;;;;;2.28;0.90;;;21.80;47.90;;;;;;5083343;28;20219;-59
2023/03/23 11:20:41;;;;;;;1.88;1.08;;;21.80;47.80;;;;;;5082588;28;20195;-56
2023/03/23 11:23:21;;;;;;;2.25;0.90;;;21.80;47.80;;;;;;5081747;28;20187;-60
2023/03/23 11:26:01;;;;;;;2.05;0.95;;;21.70;47.80;;;;;;5082254;28;20579;-61
2023/03/23 11:28:35;;;;;;;1.33;0.98;;;21.70;47.90;;;;;;5072527;28;20190;-58
2023/03/23 11:31:09;;;;;;;1.90;0.90;;;21.70;47.90;;;;;;5081168;28;20201;-57
2023/03/23 11:33:48;;;;;;;2.10;0.80;;;21.70;47.80;;;;;;5082466;28;20197;-63
2023/03/23 11:36:19;;;;;;;2.05;0.90;;;21.70;47.90;;;;;;5082142;28;20218;-63
2023/03/23 11:38:50;;;;;;;2.03;1.05;;;21.70;47.90;;;;;;5083095;28;20241;-61
2023/03/23 11:41:25;;;;;;;1.48;0.90;;;21.70;47.90;;;;;;5080958;28;20202;-61
2023/03/23 11:43:56;;;;;;;2.15;0.95;;;21.60;47.90;;;;;;5080909;28;20277;-62
2023/03/23 11:46:41;;;;;;;1.38;0.80;;;21.60;47.90;;;;;;5082071;28;20222;-56
2023/03/23 11:49:20;;;;;;;1.63;0.85;;;21.60;47.90;;;;;;5083139;28;20213;-58
2023/03/23 11:51:54;;;;;;;1.25;0.73;;;21.60;48.00;;;;;;5080969;28;20199;-60
2023/03/23 11:54:32;;;;;;;2.45;1.20;;;21.60;48.00;;;;;;5082042;28;20621;-59
2023/03/23 11:57:03;;;;;;;1.20;0.90;;;21.60;48.00;;;;;;5081731;28;20820;-58
2023/03/23 11:59:36;;;;;;;1.60;0.93;;;21.60;47.90;;;;;;5083062;28;20565;-62
2023/03/23 12:02:33;;;;;;;1.45;0.85;;;21.60;47.90;;;;;;5081708;28;20234;-59
2023/03/23 12:05:40;;;;;;;1.85;1.08;;;21.60;48.00;;;;;;5083351;28;20198;-58
2023/03/23 12:08:26;;;;;;;1.77;1.00;;;21.60;48.00;;;;;;5050907;28;20285;-57
2023/03/23 12:11:03;;;;;;;3.00;1.23;;;21.50;47.90;;;;;;5086464;28;20197;-59
2023/03/23 12:13:55;;;;;;;2.03;0.73;;;21.50;47.90;;;;;;5092098;28;20198;-58
2023/03/23 12:16:39;;;;;;;2.25;1.15;;;21.50;48.00;;;;;;5087961;28;20209;-61
2023/03/23 12:19:20;;;;;;;1.80;1.00;;;21.50;48.00;;;;;;5081772;28;20186;-57
2023/03/23 12:21:59;;;;;;;1.83;0.90;;;21.50;48.10;;;;;;5080962;28;20637;-62
2023/03/23 12:24:53;;;;;;;1.80;1.08;;;21.50;48.10;;;;;;5081489;28;20270;-60
2023/03/23 12:27:33;;;;;;;1.20;0.80;;;21.50;48.10;;;;;;5077513;28;20233;-59
2023/03/23 12:30:20;;;;;;;1.40;0.82;;;21.40;48.10;;;;;;5080420;28;20570;-60
2023/03/23 12:33:13;;;;;;;1.83;0.90;;;21.40;48.10;;;;;;5083441;28;20274;-60
2023/03/23 12:35:58;;;;;;;1.88;1.05;;;21.40;48.10;;;;;;5080975;28;20187;-62
2023/03/23 12:38:48;;;;;;;2.58;1.20;;;21.40;48.10;;;;;;5077988;28;20198;-61
2023/03/23 12:41:22;;;;;;;2.92;0.98;;;21.40;48.10;;;;;;5081530;28;20237;-61
2023/03/23 12:43:55;;;;;;;1.83;1.00;;;21.40;48.10;;;;;;5081314;28;20325;-61
2023/03/23 12:46:51;;;;;;;2.20;1.05;;;21.40;48.20;;;;;;5080625;28;20733;-57
2023/03/23 12:49:25;;;;;;;2.15;0.80;;;21.40;48.20;;;;;;5082380;28;20222;-59
2023/03/23 12:52:04;;;;;;;2.35;1.10;;;21.30;48.10;;;;;;5081730;28;20187;-61
2023/03/23 12:54:39;;;;;;;2.13;1.13;;;21.30;48.20;;;;;;5071077;28;20284;-62
2023/03/23 12:57:14;;;;;;;2.30;1.10;;;21.30;48.20;;;;;;5075902;28;20268;-58
2023/03/23 12:59:50;;;;;;;1.88;0.90;;;21.30;48.20;;;;;;5079426;28;20197;-59
2023/03/23 13:02:25;;;;;;;2.05;1.13;;;21.30;48.30;;;;;;5078815;28;20198;-58
2023/03/23 13:05:02;;;;;;;1.25;0.70;;;21.30;48.30;;;;;;5079031;28;20193;-59
2023/03/23 13:07:42;;;;;;;2.33;1.17;;;21.30;48.30;;;;;;5080439;28;20572;-60
2023/03/23 13:10:26;;;;;;;2.95;1.20;;;21.30;48.30;;;;;;5086829;28;20197;-54
2023/03/23 13:12:58;;;;;;;2.08;1.00;;;21.30;48.30;;;;;;5091831;28;20560;-50
2023/03/23 13:15:40;;;;;;;1.88;1.10;;;21.30;48.30;;;;;;5091984;28;20650;-56
2023/03/23 13:18:17;;;;;;;2.17;0.80;;;21.30;48.30;;;;;;5075888;28;20772;-58
2023/03/23 13:21:08;;;;;;;1.33;0.90;;;21.30;48.30;;;;;;5071497;28;20198;-59
2023/03/23 13:23:44;;;;;;;2.85;1.27;;;21.20;48.20;;;;;;5071059;28;20203;-60